Savannah, GA

06:06 AM EDT del 04 Luglio 2015 (GMT -0400)
Savannah International | | Change Station
CLOSE
Current Station
Aeroporto
Location: Savannah,
Altitudine: 49 ft
Stazioni meteo nelle vicinanze

Alt. 49 ft 32.13 °N, 81.20 °W | Updated 13 minutes ago

Scattered Clouds
Nubi sparse
75 °F
Sembra 75 °F
N
4
Vento Variabile Vento da SO

Oggi
Massima -- | Minima -- °F
--% Possibilità di precip.
Ieri
Massima -- | Minima -- °F
Precip. -- in
6:23 AM 8:35 PM
Gobba a levante, 93% visible
Pressione 30.06 in
Visibilità 10.0 miglia
Nuvole Nubi sparse 25000 ft
Punto di rugiada 71 °F
Umidità 87%
Piovosità 0.00 in
Spessore del manto nevoso Non disponibile.
Raggi UV 0 fuori da 12
Polline 2.90 fuori da 12
Qualità dell'aria Non disponibile.
Flu Activity Non disponibile.
METAR KSAV 040953Z 23003KT 10SM SCT250 24/22 A3006 RMK AO2 SLP178 FIRST AUGMENTED OBSERVATION T02390217

More Conditions Fewer Conditions

Pressione 30.06 in
Visibilità 10.0 miglia
Nuvole Nubi sparse 25000 ft
Punto di rugiada 71 °F
Umidità 87%
Piovosità 0.00 in
Spessore del manto nevoso Non disponibile.
Raggi UV 0 fuori da 12
Polline 2.90 fuori da 12
Qualità dell'aria Non disponibile.
Flu Activity Non disponibile.
METAR KSAV 040953Z 23003KT 10SM SCT250 24/22 A3006 RMK AO2 SLP178 FIRST AUGMENTED OBSERVATION T02390217

More Conditions Fewer Conditions

10-Day Weather Forecast

×

Almanac

Astronomia

Jul. 04, 2015 Alba Tramonto
Ora attuale
Crepuscolo civile
Crepuscolo nautico
Crepuscolo astronomico
Luna
Estensione della luce visibile
Lunghezza del giorno
Tomorrow will be .
, % of the Moon is Illuminated

Gli estremi di oggi

State Highs State Lows

Community

WunderPhotos

Upload Photos

1,834,935 foto caricate!

WunderBlogs® & News

Nearby

Qualità dell'aria

  Qualità dell'aria Indice AQ Inquinante
Not available.

Profondità neve

Stazione Profondità Altitudine

Attività sismica

Città  Distanza Mag. Data & Ora
Minimo Magnitudo Mostrato è 2.5.

Temperature delle acque costiere

Località Temperatura

Stations

Stazioni meteo nelle vicinanze

Ubicazione della stazione Temp. Raffreddamento del vento Punto di rugiada Umidità Vento Precip. Alt. Aggiornato Tipo